sensor_id;sensor_type;location;lat;lon;timestamp;temperature;humidity
37240;DHT22;23130;48.760;9.178;2023-04-06T00:00:43;0.50;99.90
37240;DHT22;23130;48.760;9.178;2023-04-06T00:03:09;0.50;99.90
37240;DHT22;23130;48.760;9.178;2023-04-06T00:05:34;0.40;99.90
37240;DHT22;23130;48.760;9.178;2023-04-06T00:08:00;0.50;99.90
37240;DHT22;23130;48.760;9.178;2023-04-06T00:10:26;0.40;99.90
37240;DHT22;23130;48.760;9.178;2023-04-06T00:12:52;0.50;99.90
37240;DHT22;23130;48.760;9.178;2023-04-06T00:15:17;0.40;99.90
37240;DHT22;23130;48.760;9.178;2023-04-06T00:17:43;0.50;99.90
37240;DHT22;23130;48.760;9.178;2023-04-06T00:20:09;0.40;99.90
37240;DHT22;23130;48.760;9.178;2023-04-06T00:22:34;0.30;99.90
37240;DHT22;23130;48.760;9.178;2023-04-06T00:25:00;0.30;99.90
37240;DHT22;23130;48.760;9.178;2023-04-06T00:27:26;0.30;99.90
37240;DHT22;23130;48.760;9.178;2023-04-06T00:29:52;0.20;99.90
37240;DHT22;23130;48.760;9.178;2023-04-06T00:32:18;0.20;99.90
37240;DHT22;23130;48.760;9.178;2023-04-06T00:34:43;0.20;99.90
37240;DHT22;23130;48.760;9.178;2023-04-06T00:37:10;0.10;99.90
37240;DHT22;23130;48.760;9.178;2023-04-06T00:39:36;0.00;99.90
37240;DHT22;23130;48.760;9.178;2023-04-06T00:42:13;0.00;99.90
37240;DHT22;23130;48.760;9.178;2023-04-06T00:44:40;0.10;99.90
37240;DHT22;23130;48.760;9.178;2023-04-06T00:47:06;0.30;99.90
37240;DHT22;23130;48.760;9.178;2023-04-06T00:49:33;0.50;99.90
37240;DHT22;23130;48.760;9.178;2023-04-06T00:52:00;0.50;99.90
37240;DHT22;23130;48.760;9.178;2023-04-06T00:54:26;0.50;99.90
37240;DHT22;23130;48.760;9.178;2023-04-06T00:56:52;0.40;99.90
37240;DHT22;23130;48.760;9.178;2023-04-06T00:59:18;0.40;99.90
37240;DHT22;23130;48.760;9.178;2023-04-06T01:01:44;0.30;99.90
37240;DHT22;23130;48.760;9.178;2023-04-06T01:04:10;0.20;99.90
37240;DHT22;23130;48.760;9.178;2023-04-06T01:06:35;0.10;99.90
37240;DHT22;23130;48.760;9.178;2023-04-06T01:09:01;0.00;99.90
37240;DHT22;23130;48.760;9.178;2023-04-06T01:11:26;0.00;99.90
37240;DHT22;23130;48.760;9.178;2023-04-06T01:13:53;0.00;99.90
37240;DHT22;23130;48.760;9.178;2023-04-06T01:16:18;0.00;99.90
37240;DHT22;23130;48.760;9.178;2023-04-06T01:18:44;0.00;99.90
37240;DHT22;23130;48.760;9.178;2023-04-06T01:21:09;0.00;99.90
37240;DHT22;23130;48.760;9.178;2023-04-06T01:23:44;0.00;99.90
37240;DHT22;23130;48.760;9.178;2023-04-06T01:26:11;0.10;99.90
37240;DHT22;23130;48.760;9.178;2023-04-06T01:28:37;0.10;99.90
37240;DHT22;23130;48.760;9.178;2023-04-06T01:31:03;0.00;99.90
37240;DHT22;23130;48.760;9.178;2023-04-06T01:33:29;-0.10;99.90
37240;DHT22;23130;48.760;9.178;2023-04-06T01:35:55;-0.20;99.90
37240;DHT22;23130;48.760;9.178;2023-04-06T01:38:21;-0.30;99.90
37240;DHT22;23130;48.760;9.178;2023-04-06T01:40:46;-0.40;99.90
37240;DHT22;23130;48.760;9.178;2023-04-06T01:43:12;-0.40;99.90
37240;DHT22;23130;48.760;9.178;2023-04-06T01:45:37;-0.40;99.90
37240;DHT22;23130;48.760;9.178;2023-04-06T01:48:03;-0.50;99.90
37240;DHT22;23130;48.760;9.178;2023-04-06T01:50:29;-0.60;99.90
37240;DHT22;23130;48.760;9.178;2023-04-06T01:52:54;-0.60;99.90
37240;DHT22;23130;48.760;9.178;2023-04-06T01:55:20;-0.70;99.90
37240;DHT22;23130;48.760;9.178;2023-04-06T01:57:46;-0.70;99.90
37240;DHT22;23130;48.760;9.178;2023-04-06T02:00:12;-0.70;99.90
37240;DHT22;23130;48.760;9.178;2023-04-06T02:02:37;-0.70;99.90
37240;DHT22;23130;48.760;9.178;2023-04-06T02:05:03;-0.80;99.90
37240;DHT22;23130;48.760;9.178;2023-04-06T02:07:29;-0.80;99.90
37240;DHT22;23130;48.760;9.178;2023-04-06T02:09:55;-0.80;99.90
37240;DHT22;23130;48.760;9.178;2023-04-06T02:12:21;-0.80;99.90
37240;DHT22;23130;48.760;9.178;2023-04-06T02:14:46;-0.80;99.90
37240;DHT22;23130;48.760;9.178;2023-04-06T02:17:12;-0.90;99.90
37240;DHT22;23130;48.760;9.178;2023-04-06T02:19:38;-0.90;99.90
37240;DHT22;23130;48.760;9.178;2023-04-06T02:22:03;-0.90;99.90
37240;DHT22;23130;48.760;9.178;2023-04-06T02:24:29;-0.90;99.90
37240;DHT22;23130;48.760;9.178;2023-04-06T02:26:54;-0.90;99.90
37240;DHT22;23130;48.760;9.178;2023-04-06T02:29:20;-0.90;99.90
37240;DHT22;23130;48.760;9.178;2023-04-06T02:31:46;-0.90;99.90
37240;DHT22;23130;48.760;9.178;2023-04-06T02:34:12;-0.90;99.90
37240;DHT22;23130;48.760;9.178;2023-04-06T02:36:43;-0.90;99.90
37240;DHT22;23130;48.760;9.178;2023-04-06T02:39:10;-0.90;99.90
37240;DHT22;23130;48.760;9.178;2023-04-06T02:41:35;-0.90;99.90
37240;DHT22;23130;48.760;9.178;2023-04-06T02:44:02;-0.80;99.90
37240;DHT22;23130;48.760;9.178;2023-04-06T02:46:28;-0.80;99.90
37240;DHT22;23130;48.760;9.178;2023-04-06T02:48:54;-0.80;99.90
37240;DHT22;23130;48.760;9.178;2023-04-06T02:51:20;-0.80;99.90
37240;DHT22;23130;48.760;9.178;2023-04-06T02:53:46;-0.80;99.90
37240;DHT22;23130;48.760;9.178;2023-04-06T02:56:11;-0.80;99.90
37240;DHT22;23130;48.760;9.178;2023-04-06T02:58:37;-0.90;99.90
37240;DHT22;23130;48.760;9.178;2023-04-06T03:01:03;-0.90;99.90
37240;DHT22;23130;48.760;9.178;2023-04-06T03:03:28;-0.90;99.90
37240;DHT22;23130;48.760;9.178;2023-04-06T03:05:54;-0.90;99.90
37240;DHT22;23130;48.760;9.178;2023-04-06T03:08:20;-0.90;99.90
37240;DHT22;23130;48.760;9.178;2023-04-06T03:10:45;-0.80;99.90
37240;DHT22;23130;48.760;9.178;2023-04-06T03:13:11;-0.80;99.90
37240;DHT22;23130;48.760;9.178;2023-04-06T03:15:36;-0.80;99.90
37240;DHT22;23130;48.760;9.178;2023-04-06T03:18:02;-0.90;99.90
37240;DHT22;23130;48.760;9.178;2023-04-06T03:20:28;-0.90;99.90
37240;DHT22;23130;48.760;9.178;2023-04-06T03:22:53;-0.90;99.90
37240;DHT22;23130;48.760;9.178;2023-04-06T03:25:19;-0.80;99.90
37240;DHT22;23130;48.760;9.178;2023-04-06T03:27:44;-0.90;99.90
37240;DHT22;23130;48.760;9.178;2023-04-06T03:30:10;-0.90;99.90
37240;DHT22;23130;48.760;9.178;2023-04-06T03:32:36;-0.90;99.90
37240;DHT22;23130;48.760;9.178;2023-04-06T03:35:01;-0.80;99.90
37240;DHT22;23130;48.760;9.178;2023-04-06T03:37:27;-0.90;99.90
37240;DHT22;23130;48.760;9.178;2023-04-06T03:39:52;-0.80;99.90
37240;DHT22;23130;48.760;9.178;2023-04-06T03:42:18;-0.70;99.90
37240;DHT22;23130;48.760;9.178;2023-04-06T03:44:43;-0.60;99.90
37240;DHT22;23130;48.760;9.178;2023-04-06T03:47:09;-0.60;99.90
37240;DHT22;23130;48.760;9.178;2023-04-06T03:49:35;-0.70;99.90
37240;DHT22;23130;48.760;9.178;2023-04-06T03:52:01;-0.80;99.90
37240;DHT22;23130;48.760;9.178;2023-04-06T03:54:27;-0.80;99.90
37240;DHT22;23130;48.760;9.178;2023-04-06T03:56:52;-0.70;99.90
37240;DHT22;23130;48.760;9.178;2023-04-06T03:59:18;-0.70;99.90
37240;DHT22;23130;48.760;9.178;2023-04-06T04:01:43;-0.60;99.90
37240;DHT22;23130;48.760;9.178;2023-04-06T04:04:10;-0.60;99.90
37240;DHT22;23130;48.760;9.178;2023-04-06T04:06:35;-0.70;99.90
37240;DHT22;23130;48.760;9.178;2023-04-06T04:09:01;-0.80;99.90
37240;DHT22;23130;48.760;9.178;2023-04-06T04:11:27;-0.80;99.90
37240;DHT22;23130;48.760;9.178;2023-04-06T04:13:53;-0.80;99.90
37240;DHT22;23130;48.760;9.178;2023-04-06T04:16:18;-0.90;99.90
37240;DHT22;23130;48.760;9.178;2023-04-06T04:18:44;-0.90;99.90
37240;DHT22;23130;48.760;9.178;2023-04-06T04:21:12;-1.00;99.90
37240;DHT22;23130;48.760;9.178;2023-04-06T04:23:38;-0.90;99.90
37240;DHT22;23130;48.760;9.178;2023-04-06T04:26:03;-0.70;99.90
37240;DHT22;23130;48.760;9.178;2023-04-06T04:28:29;-0.50;99.90
37240;DHT22;23130;48.760;9.178;2023-04-06T04:30:54;-0.40;99.90
37240;DHT22;23130;48.760;9.178;2023-04-06T04:33:20;-0.50;99.90
37240;DHT22;23130;48.760;9.178;2023-04-06T04:35:46;-0.40;99.90
37240;DHT22;23130;48.760;9.178;2023-04-06T04:38:11;-0.40;99.90
37240;DHT22;23130;48.760;9.178;2023-04-06T04:40:37;-0.40;99.90
37240;DHT22;23130;48.760;9.178;2023-04-06T04:43:02;-0.40;99.90
37240;DHT22;23130;48.760;9.178;2023-04-06T04:45:28;-0.40;99.90
37240;DHT22;23130;48.760;9.178;2023-04-06T04:47:53;-0.40;99.90
37240;DHT22;23130;48.760;9.178;2023-04-06T04:50:19;-0.50;99.90
37240;DHT22;23130;48.760;9.178;2023-04-06T04:52:44;-0.50;99.90
37240;DHT22;23130;48.760;9.178;2023-04-06T04:55:10;-0.40;99.90
37240;DHT22;23130;48.760;9.178;2023-04-06T04:57:36;-0.40;99.90
37240;DHT22;23130;48.760;9.178;2023-04-06T05:00:02;-0.30;99.90
37240;DHT22;23130;48.760;9.178;2023-04-06T05:02:27;-0.10;99.90
37240;DHT22;23130;48.760;9.178;2023-04-06T05:04:53;0.00;99.90
37240;DHT22;23130;48.760;9.178;2023-04-06T05:07:19;0.20;99.90
37240;DHT22;23130;48.760;9.178;2023-04-06T05:09:46;0.30;99.90
37240;DHT22;23130;48.760;9.178;2023-04-06T05:12:11;0.40;99.90
37240;DHT22;23130;48.760;9.178;2023-04-06T05:14:37;0.50;99.90
37240;DHT22;23130;48.760;9.178;2023-04-06T05:17:03;0.60;99.90
37240;DHT22;23130;48.760;9.178;2023-04-06T05:19:29;0.60;99.90
37240;DHT22;23130;48.760;9.178;2023-04-06T05:21:55;0.70;99.90
37240;DHT22;23130;48.760;9.178;2023-04-06T05:24:20;0.90;99.90
37240;DHT22;23130;48.760;9.178;2023-04-06T05:26:46;1.10;99.90
37240;DHT22;23130;48.760;9.178;2023-04-06T05:29:12;1.30;99.90
37240;DHT22;23130;48.760;9.178;2023-04-06T05:31:37;1.50;99.90
37240;DHT22;23130;48.760;9.178;2023-04-06T05:34:03;1.70;99.90
37240;DHT22;23130;48.760;9.178;2023-04-06T05:36:29;1.90;99.90
37240;DHT22;23130;48.760;9.178;2023-04-06T05:38:55;2.00;99.90
37240;DHT22;23130;48.760;9.178;2023-04-06T05:41:21;2.10;99.90
37240;DHT22;23130;48.760;9.178;2023-04-06T05:43:47;2.30;99.90
37240;DHT22;23130;48.760;9.178;2023-04-06T05:46:13;2.40;99.90
37240;DHT22;23130;48.760;9.178;2023-04-06T05:48:39;2.50;99.90
37240;DHT22;23130;48.760;9.178;2023-04-06T05:51:04;2.70;99.90
37240;DHT22;23130;48.760;9.178;2023-04-06T05:53:31;3.60;99.90
37240;DHT22;23130;48.760;9.178;2023-04-06T05:56:00;4.80;99.90
37240;DHT22;23130;48.760;9.178;2023-04-06T05:58:25;6.20;99.90
37240;DHT22;23130;48.760;9.178;2023-04-06T06:00:59;7.30;99.90
37240;DHT22;23130;48.760;9.178;2023-04-06T06:03:25;8.20;99.90
37240;DHT22;23130;48.760;9.178;2023-04-06T06:05:51;9.00;99.30
37240;DHT22;23130;48.760;9.178;2023-04-06T06:08:16;9.50;97.90
37240;DHT22;23130;48.760;9.178;2023-04-06T06:10:42;10.00;97.00
37240;DHT22;23130;48.760;9.178;2023-04-06T06:13:08;9.80;96.50
37240;DHT22;23130;48.760;9.178;2023-04-06T06:15:34;9.70;96.50
37240;DHT22;23130;48.760;9.178;2023-04-06T06:18:00;9.80;96.80
37240;DHT22;23130;48.760;9.178;2023-04-06T06:20:25;10.00;96.00
37240;DHT22;23130;48.760;9.178;2023-04-06T06:22:51;10.10;95.80
37240;DHT22;23130;48.760;9.178;2023-04-06T06:25:17;10.50;95.10
37240;DHT22;23130;48.760;9.178;2023-04-06T06:27:43;10.60;94.90
37240;DHT22;23130;48.760;9.178;2023-04-06T06:30:08;11.00;93.70
37240;DHT22;23130;48.760;9.178;2023-04-06T06:32:34;11.50;93.20
37240;DHT22;23130;48.760;9.178;2023-04-06T06:35:00;12.00;91.20
37240;DHT22;23130;48.760;9.178;2023-04-06T06:37:25;12.30;90.90
37240;DHT22;23130;48.760;9.178;2023-04-06T06:39:51;12.00;91.70
37240;DHT22;23130;48.760;9.178;2023-04-06T06:42:16;12.20;90.50
37240;DHT22;23130;48.760;9.178;2023-04-06T06:44:42;12.60;90.20
37240;DHT22;23130;48.760;9.178;2023-04-06T06:47:07;12.50;89.40
37240;DHT22;23130;48.760;9.178;2023-04-06T06:49:33;12.80;89.50
37240;DHT22;23130;48.760;9.178;2023-04-06T06:51:58;12.80;85.90
37240;DHT22;23130;48.760;9.178;2023-04-06T06:54:24;12.60;87.20
37240;DHT22;23130;48.760;9.178;2023-04-06T06:56:50;12.70;86.30
37240;DHT22;23130;48.760;9.178;2023-04-06T06:59:15;12.90;85.60
37240;DHT22;23130;48.760;9.178;2023-04-06T07:01:41;13.10;85.00
37240;DHT22;23130;48.760;9.178;2023-04-06T07:04:07;12.90;84.10
37240;DHT22;23130;48.760;9.178;2023-04-06T07:06:35;13.00;84.70
37240;DHT22;23130;48.760;9.178;2023-04-06T07:09:01;13.20;85.30
37240;DHT22;23130;48.760;9.178;2023-04-06T07:11:28;13.00;84.30
37240;DHT22;23130;48.760;9.178;2023-04-06T07:13:54;12.70;84.40
37240;DHT22;23130;48.760;9.178;2023-04-06T07:16:20;12.80;85.40
37240;DHT22;23130;48.760;9.178;2023-04-06T07:18:45;12.90;84.50
37240;DHT22;23130;48.760;9.178;2023-04-06T07:21:11;13.30;83.70
37240;DHT22;23130;48.760;9.178;2023-04-06T07:23:37;13.50;83.10
37240;DHT22;23130;48.760;9.178;2023-04-06T07:26:02;13.20;83.40
37240;DHT22;23130;48.760;9.178;2023-04-06T07:28:28;13.00;84.20
37240;DHT22;23130;48.760;9.178;2023-04-06T07:30:54;13.00;84.30
37240;DHT22;23130;48.760;9.178;2023-04-06T07:33:20;12.60;85.20
37240;DHT22;23130;48.760;9.178;2023-04-06T07:35:45;12.30;86.10
37240;DHT22;23130;48.760;9.178;2023-04-06T07:38:11;11.70;87.50
37240;DHT22;23130;48.760;9.178;2023-04-06T07:40:37;11.10;88.60
37240;DHT22;23130;48.760;9.178;2023-04-06T07:43:03;10.70;90.50
37240;DHT22;23130;48.760;9.178;2023-04-06T07:45:28;10.20;90.60
37240;DHT22;23130;48.760;9.178;2023-04-06T07:47:54;9.90;91.60
37240;DHT22;23130;48.760;9.178;2023-04-06T07:50:20;9.60;91.80
37240;DHT22;23130;48.760;9.178;2023-04-06T07:52:45;9.60;92.00
37240;DHT22;23130;48.760;9.178;2023-04-06T07:55:11;9.50;92.10
37240;DHT22;23130;48.760;9.178;2023-04-06T07:57:37;9.50;92.60
37240;DHT22;23130;48.760;9.178;2023-04-06T08:00:03;9.40;92.30
37240;DHT22;23130;48.760;9.178;2023-04-06T08:02:30;9.50;92.90
37240;DHT22;23130;48.760;9.178;2023-04-06T08:04:56;9.50;93.00
37240;DHT22;23130;48.760;9.178;2023-04-06T08:07:21;9.50;92.70
37240;DHT22;23130;48.760;9.178;2023-04-06T08:09:47;9.40;92.50
37240;DHT22;23130;48.760;9.178;2023-04-06T08:12:13;9.60;93.00
37240;DHT22;23130;48.760;9.178;2023-04-06T08:14:39;9.60;93.00
37240;DHT22;23130;48.760;9.178;2023-04-06T08:17:05;9.60;93.40
37240;DHT22;23130;48.760;9.178;2023-04-06T08:19:30;9.60;92.50
37240;DHT22;23130;48.760;9.178;2023-04-06T08:21:56;9.80;92.60
37240;DHT22;23130;48.760;9.178;2023-04-06T08:24:21;9.80;93.10
37240;DHT22;23130;48.760;9.178;2023-04-06T08:26:47;9.90;93.20
37240;DHT22;23130;48.760;9.178;2023-04-06T08:29:12;9.90;92.70
37240;DHT22;23130;48.760;9.178;2023-04-06T08:31:38;9.90;92.80
37240;DHT22;23130;48.760;9.178;2023-04-06T08:34:04;10.00;93.00
37240;DHT22;23130;48.760;9.178;2023-04-06T08:36:31;10.10;92.50
37240;DHT22;23130;48.760;9.178;2023-04-06T08:38:56;10.00;93.00
37240;DHT22;23130;48.760;9.178;2023-04-06T08:41:22;10.00;93.40
37240;DHT22;23130;48.760;9.178;2023-04-06T08:43:59;10.00;93.30
37240;DHT22;23130;48.760;9.178;2023-04-06T08:46:25;10.00;93.20
37240;DHT22;23130;48.760;9.178;2023-04-06T08:48:58;10.00;91.90
37240;DHT22;23130;48.760;9.178;2023-04-06T08:51:24;10.10;91.40
37240;DHT22;23130;48.760;9.178;2023-04-06T08:53:52;10.00;91.60
37240;DHT22;23130;48.760;9.178;2023-04-06T08:56:20;10.20;91.90
37240;DHT22;23130;48.760;9.178;2023-04-06T08:58:47;10.30;91.50
37240;DHT22;23130;48.760;9.178;2023-04-06T09:01:13;10.20;92.40
37240;DHT22;23130;48.760;9.178;2023-04-06T09:03:40;10.20;91.80
37240;DHT22;23130;48.760;9.178;2023-04-06T09:06:08;10.20;91.80
37240;DHT22;23130;48.760;9.178;2023-04-06T09:08:35;10.10;91.60
37240;DHT22;23130;48.760;9.178;2023-04-06T09:11:04;10.00;92.80
37240;DHT22;23130;48.760;9.178;2023-04-06T09:13:30;10.10;93.00
37240;DHT22;23130;48.760;9.178;2023-04-06T09:16:03;10.00;92.80
37240;DHT22;23130;48.760;9.178;2023-04-06T09:18:33;10.10;92.20
37240;DHT22;23130;48.760;9.178;2023-04-06T09:21:03;10.00;91.90
37240;DHT22;23130;48.760;9.178;2023-04-06T09:23:29;10.10;92.50
37240;DHT22;23130;48.760;9.178;2023-04-06T09:26:10;10.10;91.70
37240;DHT22;23130;48.760;9.178;2023-04-06T09:31:12;10.20;92.20
37240;DHT22;23130;48.760;9.178;2023-04-06T09:33:40;10.20;91.10
37240;DHT22;23130;48.760;9.178;2023-04-06T09:36:06;10.20;91.30
37240;DHT22;23130;48.760;9.178;2023-04-06T09:38:36;10.20;91.10
37240;DHT22;23130;48.760;9.178;2023-04-06T09:41:01;10.20;91.30
37240;DHT22;23130;48.760;9.178;2023-04-06T09:43:27;10.20;91.20
37240;DHT22;23130;48.760;9.178;2023-04-06T09:45:53;10.20;90.60
37240;DHT22;23130;48.760;9.178;2023-04-06T09:48:20;10.20;90.40
37240;DHT22;23130;48.760;9.178;2023-04-06T09:50:49;10.30;90.20
37240;DHT22;23130;48.760;9.178;2023-04-06T09:53:17;10.40;90.70
37240;DHT22;23130;48.760;9.178;2023-04-06T09:55:45;10.60;90.10
37240;DHT22;23130;48.760;9.178;2023-04-06T09:58:16;10.70;90.00
37240;DHT22;23130;48.760;9.178;2023-04-06T10:06:12;11.00;87.70
37240;DHT22;23130;48.760;9.178;2023-04-06T10:08:40;11.10;86.00
37240;DHT22;23130;48.760;9.178;2023-04-06T10:11:07;11.10;85.50
37240;DHT22;23130;48.760;9.178;2023-04-06T10:13:33;11.10;86.70
37240;DHT22;23130;48.760;9.178;2023-04-06T10:16:00;11.10;85.00
37240;DHT22;23130;48.760;9.178;2023-04-06T10:18:27;11.20;85.50
37240;DHT22;23130;48.760;9.178;2023-04-06T10:21:14;11.20;82.70
37240;DHT22;23130;48.760;9.178;2023-04-06T10:23:45;11.00;82.80
37240;DHT22;23130;48.760;9.178;2023-04-06T10:26:14;10.90;82.40
37240;DHT22;23130;48.760;9.178;2023-04-06T10:28:42;10.90;83.00
37240;DHT22;23130;48.760;9.178;2023-04-06T10:31:08;10.90;83.60
37240;DHT22;23130;48.760;9.178;2023-04-06T10:33:34;11.10;84.60
37240;DHT22;23130;48.760;9.178;2023-04-06T10:36:14;11.20;83.10
37240;DHT22;23130;48.760;9.178;2023-04-06T10:38:41;11.40;84.00
37240;DHT22;23130;48.760;9.178;2023-04-06T10:41:09;11.60;83.90
37240;DHT22;23130;48.760;9.178;2023-04-06T10:43:40;11.60;82.20
37240;DHT22;23130;48.760;9.178;2023-04-06T10:46:07;11.70;84.00
37240;DHT22;23130;48.760;9.178;2023-04-06T10:48:45;11.80;83.00
37240;DHT22;23130;48.760;9.178;2023-04-06T10:51:16;11.80;83.60
37240;DHT22;23130;48.760;9.178;2023-04-06T10:53:44;12.00;84.20
37240;DHT22;23130;48.760;9.178;2023-04-06T10:56:12;12.00;80.60
37240;DHT22;23130;48.760;9.178;2023-04-06T10:58:38;11.80;79.80
37240;DHT22;23130;48.760;9.178;2023-04-06T11:01:10;11.70;81.20
37240;DHT22;23130;48.760;9.178;2023-04-06T11:03:46;11.50;79.50
37240;DHT22;23130;48.760;9.178;2023-04-06T11:06:18;11.50;80.60
37240;DHT22;23130;48.760;9.178;2023-04-06T11:08:44;11.60;81.00
37240;DHT22;23130;48.760;9.178;2023-04-06T11:11:14;11.60;79.40
37240;DHT22;23130;48.760;9.178;2023-04-06T11:13:43;11.60;80.10
37240;DHT22;23130;48.760;9.178;2023-04-06T11:16:14;11.70;79.80
37240;DHT22;23130;48.760;9.178;2023-04-06T11:18:50;11.80;81.10
37240;DHT22;23130;48.760;9.178;2023-04-06T11:21:17;11.90;83.00
37240;DHT22;23130;48.760;9.178;2023-04-06T11:23:42;12.10;81.10
37240;DHT22;23130;48.760;9.178;2023-04-06T11:26:12;12.20;80.10
37240;DHT22;23130;48.760;9.178;2023-04-06T11:28:40;12.40;80.70
37240;DHT22;23130;48.760;9.178;2023-04-06T11:31:09;12.50;80.40
37240;DHT22;23130;48.760;9.178;2023-04-06T11:33:37;12.70;82.40
37240;DHT22;23130;48.760;9.178;2023-04-06T11:36:04;12.70;79.90
37240;DHT22;23130;48.760;9.178;2023-04-06T11:38:30;12.70;80.70
37240;DHT22;23130;48.760;9.178;2023-04-06T11:40:55;12.70;78.30
37240;DHT22;23130;48.760;9.178;2023-04-06T11:43:30;12.70;79.10
37240;DHT22;23130;48.760;9.178;2023-04-06T11:46:00;12.80;79.10
37240;DHT22;23130;48.760;9.178;2023-04-06T11:48:27;12.90;77.90
37240;DHT22;23130;48.760;9.178;2023-04-06T11:50:58;12.80;76.20
37240;DHT22;23130;48.760;9.178;2023-04-06T11:53:27;12.50;76.50
37240;DHT22;23130;48.760;9.178;2023-04-06T11:55:52;12.40;78.20
37240;DHT22;23130;48.760;9.178;2023-04-06T11:58:18;12.60;77.00
37240;DHT22;23130;48.760;9.178;2023-04-06T12:00:43;12.80;79.50
37240;DHT22;23130;48.760;9.178;2023-04-06T12:03:11;13.10;79.60
37240;DHT22;23130;48.760;9.178;2023-04-06T12:05:37;13.20;79.20
37240;DHT22;23130;48.760;9.178;2023-04-06T12:08:03;13.40;78.80
37240;DHT22;23130;48.760;9.178;2023-04-06T12:10:29;13.60;77.40
37240;DHT22;23130;48.760;9.178;2023-04-06T12:12:55;13.50;75.30
37240;DHT22;23130;48.760;9.178;2023-04-06T12:15:20;13.60;76.80
37240;DHT22;23130;48.760;9.178;2023-04-06T12:17:47;13.60;76.00
37240;DHT22;23130;48.760;9.178;2023-04-06T12:20:12;13.50;75.40
37240;DHT22;23130;48.760;9.178;2023-04-06T12:22:39;13.50;74.10
37240;DHT22;23130;48.760;9.178;2023-04-06T12:25:05;13.30;74.00
37240;DHT22;23130;48.760;9.178;2023-04-06T12:27:32;12.90;75.10
37240;DHT22;23130;48.760;9.178;2023-04-06T12:29:58;12.80;75.00
37240;DHT22;23130;48.760;9.178;2023-04-06T12:32:23;12.90;73.60
37240;DHT22;23130;48.760;9.178;2023-04-06T12:34:50;12.70;73.80
37240;DHT22;23130;48.760;9.178;2023-04-06T12:37:16;12.60;74.50
37240;DHT22;23130;48.760;9.178;2023-04-06T12:39:41;12.70;74.70
37240;DHT22;23130;48.760;9.178;2023-04-06T12:42:09;12.70;76.40
37240;DHT22;23130;48.760;9.178;2023-04-06T12:44:35;12.80;73.60
37240;DHT22;23130;48.760;9.178;2023-04-06T12:47:01;13.00;75.60
37240;DHT22;23130;48.760;9.178;2023-04-06T12:49:26;13.10;75.60
37240;DHT22;23130;48.760;9.178;2023-04-06T12:51:52;13.30;74.10
37240;DHT22;23130;48.760;9.178;2023-04-06T12:54:17;13.50;74.40
37240;DHT22;23130;48.760;9.178;2023-04-06T12:56:43;13.60;75.10
37240;DHT22;23130;48.760;9.178;2023-04-06T12:59:09;13.60;74.30
37240;DHT22;23130;48.760;9.178;2023-04-06T13:01:34;13.60;73.20
37240;DHT22;23130;48.760;9.178;2023-04-06T13:04:00;13.60;76.40
37240;DHT22;23130;48.760;9.178;2023-04-06T13:06:26;13.30;72.20
37240;DHT22;23130;48.760;9.178;2023-04-06T13:08:54;13.30;75.20
37240;DHT22;23130;48.760;9.178;2023-04-06T13:11:21;13.50;74.80
37240;DHT22;23130;48.760;9.178;2023-04-06T13:13:49;13.60;72.90
37240;DHT22;23130;48.760;9.178;2023-04-06T13:16:14;13.80;71.60
37240;DHT22;23130;48.760;9.178;2023-04-06T13:18:40;13.80;71.50
37240;DHT22;23130;48.760;9.178;2023-04-06T13:21:06;13.80;72.80
37240;DHT22;23130;48.760;9.178;2023-04-06T13:23:32;14.00;73.70
37240;DHT22;23130;48.760;9.178;2023-04-06T13:26:03;14.10;72.90
37240;DHT22;23130;48.760;9.178;2023-04-06T13:28:29;14.30;73.00
37240;DHT22;23130;48.760;9.178;2023-04-06T13:30:55;14.40;73.10
37240;DHT22;23130;48.760;9.178;2023-04-06T13:33:23;14.50;71.30
37240;DHT22;23130;48.760;9.178;2023-04-06T13:35:48;14.70;70.30
37240;DHT22;23130;48.760;9.178;2023-04-06T13:38:14;14.80;70.10
37240;DHT22;23130;48.760;9.178;2023-04-06T13:40:40;15.00;70.50
37240;DHT22;23130;48.760;9.178;2023-04-06T13:43:07;15.20;69.70
37240;DHT22;23130;48.760;9.178;2023-04-06T13:45:32;15.20;67.30
37240;DHT22;23130;48.760;9.178;2023-04-06T13:47:58;15.10;68.10
37240;DHT22;23130;48.760;9.178;2023-04-06T13:50:27;15.20;69.90
37240;DHT22;23130;48.760;9.178;2023-04-06T13:52:53;15.20;68.50
37240;DHT22;23130;48.760;9.178;2023-04-06T13:55:19;15.10;67.90
37240;DHT22;23130;48.760;9.178;2023-04-06T13:57:44;15.20;66.70
37240;DHT22;23130;48.760;9.178;2023-04-06T14:00:11;15.00;67.00
37240;DHT22;23130;48.760;9.178;2023-04-06T14:02:41;15.00;67.00
37240;DHT22;23130;48.760;9.178;2023-04-06T14:05:06;14.90;67.30
37240;DHT22;23130;48.760;9.178;2023-04-06T14:07:32;15.00;68.60
37240;DHT22;23130;48.760;9.178;2023-04-06T14:09:58;15.00;67.60
37240;DHT22;23130;48.760;9.178;2023-04-06T14:12:23;14.70;66.70
37240;DHT22;23130;48.760;9.178;2023-04-06T14:14:50;15.00;66.60
37240;DHT22;23130;48.760;9.178;2023-04-06T14:17:15;15.20;67.10
37240;DHT22;23130;48.760;9.178;2023-04-06T14:19:41;15.20;67.00
37240;DHT22;23130;48.760;9.178;2023-04-06T14:22:07;15.00;66.80
37240;DHT22;23130;48.760;9.178;2023-04-06T14:24:33;14.90;69.10
37240;DHT22;23130;48.760;9.178;2023-04-06T14:27:01;14.80;68.60
37240;DHT22;23130;48.760;9.178;2023-04-06T14:29:27;14.80;67.30
37240;DHT22;23130;48.760;9.178;2023-04-06T14:31:53;14.80;66.90
37240;DHT22;23130;48.760;9.178;2023-04-06T14:34:25;14.80;68.40
37240;DHT22;23130;48.760;9.178;2023-04-06T14:36:50;14.70;68.80
37240;DHT22;23130;48.760;9.178;2023-04-06T14:39:16;14.60;66.00
37240;DHT22;23130;48.760;9.178;2023-04-06T14:41:42;14.50;67.20
37240;DHT22;23130;48.760;9.178;2023-04-06T14:44:07;14.50;66.90
37240;DHT22;23130;48.760;9.178;2023-04-06T14:46:37;14.60;66.30
37240;DHT22;23130;48.760;9.178;2023-04-06T14:49:03;14.60;65.90
37240;DHT22;23130;48.760;9.178;2023-04-06T14:51:28;14.40;68.60
37240;DHT22;23130;48.760;9.178;2023-04-06T14:53:54;14.40;66.60
37240;DHT22;23130;48.760;9.178;2023-04-06T14:56:23;14.30;66.20
37240;DHT22;23130;48.760;9.178;2023-04-06T14:58:50;14.20;66.10
37240;DHT22;23130;48.760;9.178;2023-04-06T15:01:17;14.10;66.30
37240;DHT22;23130;48.760;9.178;2023-04-06T15:03:43;14.20;66.70
37240;DHT22;23130;48.760;9.178;2023-04-06T15:06:12;14.10;65.90
37240;DHT22;23130;48.760;9.178;2023-04-06T15:08:44;14.10;66.60
37240;DHT22;23130;48.760;9.178;2023-04-06T15:11:10;14.10;66.20
37240;DHT22;23130;48.760;9.178;2023-04-06T15:13:37;14.00;66.20
37240;DHT22;23130;48.760;9.178;2023-04-06T15:16:03;14.10;66.40
37240;DHT22;23130;48.760;9.178;2023-04-06T15:18:29;14.20;67.30
37240;DHT22;23130;48.760;9.178;2023-04-06T15:20:55;14.30;67.20
37240;DHT22;23130;48.760;9.178;2023-04-06T15:23:20;14.30;65.40
37240;DHT22;23130;48.760;9.178;2023-04-06T15:25:47;14.20;65.30
37240;DHT22;23130;48.760;9.178;2023-04-06T15:28:12;14.20;66.20
37240;DHT22;23130;48.760;9.178;2023-04-06T15:30:38;14.20;67.30
37240;DHT22;23130;48.760;9.178;2023-04-06T15:33:04;14.10;66.90
37240;DHT22;23130;48.760;9.178;2023-04-06T15:35:32;14.00;66.40
37240;DHT22;23130;48.760;9.178;2023-04-06T15:37:59;14.10;65.80